Hlavní strana
METAR-TAF:

METAR-TAF

Letiště :

Kóči, Japonsko

zeměpisná šířka: 33-32N, zeměpisná délka: 133-40E, výška: 7 m

Aktuální stav počasí

Zpráva byla vytvořena před 29 minutami, v 02:00 UTC
Severozápadní vítr 5 kt
Teplota 12°C
Vlhkost vzduchu 50%
Tlak 1029 hPa
Viditelnost 10 km a více
Skoro jasno ve výšce 3000 ft
Polojasno ve výšce 13000 ft
Oblačno až skoro zataženo ve výšce 15000 ft

METAR: RJOK 200200Z 31005KT 9999 FEW030 SCT130 BKN150 12/02 Q1029

Čas: 11:29 (02:29 UTC)

Předpověď počasí

Zpráva byla vytvořena před 3 hodinami a 22 minutami, v 23:07 UTC
Předpověď platná od 20 v 00 UTC do 21 v 06 UTC
Severní vítr 10 kt
Viditelnost 10 km a více
Skoro jasno ve výšce 3000 ft
Polojasno ve výšce 6000 ft
Změna
od 20 v 01 UTC do 20 v 03 UTC
Jižní vítr 6 kt
Změna
od 20 v 08 UTC do 20 v 10 UTC
Severní vítr 5 kt
Změna
od 21 v 00 UTC do 21 v 03 UTC
Jižní vítr 7 kt

TAF: RJOK 192307Z 2000/2106 35010KT 9999 FEW030 SCT060 BECMG 2001/2003 17006KT BECMG 2008/2010 35005KT BECMG 2100/2103 18007KT

Stav a předpovědi počasí z více než 4 000 letišť (zprávy METAR a TAF).

Červené a žluté tečky na mapě představují dostupné meteorologické stanice.

Když kurzor umístíte na tečku, zobrazí se název stanice.

Pak kliknutím zobrazíte stav a předpověď počasí.

Chcete-li změnit mapu, kliknutím na zelené tlačítko se znaménkem +mapu přiblížíte, kliknutím na zelené tlačítko se znaménkem – mapu oddálíte a kliknutím na zelené šipky přejdete na sousední mapy.


METAR-TAF: